Terminal Aerodrome Forecast
Issued by NWS Tuscon, AZ

Home | Current Version | Previous Version | Text Only | Print | Product List | Glossary On
Versions: 1 2 3 4 5 6 7 8 9 10 11 12 13 14 15 16
000
FTUS45 KTWC 012300
TAFDUG
TAF
KDUG 012334Z 0200/0224 24015G25KT P6SM SCT080 SCT250
     FM020200 27009KT P6SM FEW080
     FM020700 18006KT P6SM SKC
     FM021500 21010KT P6SM SCT250
     FM021800 23015G25KT P6SM BKN250
     FM022100 25022G32KT P6SM BKN250=

USA.gov is the U.S. government's official web portal to all federal, state and local government web resources and services.